createdAt,value
2023-04-07T00:00:43.323Z,97120.28
2023-04-07T00:03:09.926Z,97121.75
2023-04-07T00:05:36.447Z,97123.22
2023-04-07T00:13:33.924Z,97131.19
2023-04-07T00:16:00.355Z,97136.16
2023-04-07T00:18:26.876Z,97138.44
2023-04-07T00:20:53.293Z,97140.72
2023-04-07T00:23:19.716Z,97144.00
2023-04-07T00:25:46.143Z,97146.50
2023-04-07T00:28:12.560Z,97141.09
2023-04-07T00:30:38.950Z,97146.13
2023-04-07T00:33:05.334Z,97135.75
2023-04-07T00:35:36.212Z,97140.13
2023-04-07T00:38:02.710Z,97135.44
2023-04-07T00:40:29.060Z,97130.28
2023-04-07T00:42:55.648Z,97117.47
2023-04-07T00:45:22.099Z,97111.66
2023-04-07T00:47:48.621Z,97105.03
2023-04-07T00:50:15.060Z,97088.44
2023-04-07T00:52:41.454Z,97094.03
2023-04-07T00:55:07.954Z,97080.94
2023-04-07T00:57:34.503Z,97076.56
2023-04-07T01:00:01.008Z,97064.75
2023-04-07T01:02:27.555Z,97064.31
2023-04-07T01:04:54.295Z,97062.22
2023-04-07T01:07:20.776Z,97052.31
2023-04-07T01:09:47.148Z,97045.50
2023-04-07T01:12:13.593Z,97043.88
2023-04-07T01:14:39.947Z,97037.63
2023-04-07T01:19:46.647Z,97035.16
2023-04-07T01:24:53.436Z,97032.28
2023-04-07T01:27:19.816Z,97035.59
2023-04-07T01:29:46.197Z,97024.41
2023-04-07T01:32:12.537Z,97018.25
2023-04-07T01:34:38.953Z,97012.91
2023-04-07T01:37:05.318Z,97010.44
2023-04-07T01:39:31.753Z,97014.59
2023-04-07T01:41:58.105Z,97005.47
2023-04-07T01:44:24.450Z,97008.94
2023-04-07T01:46:51.019Z,97014.53
2023-04-07T01:49:17.521Z,97012.69
2023-04-07T01:51:43.869Z,97007.56
2023-04-07T01:54:10.228Z,97008.59
2023-04-07T01:56:36.606Z,97011.47
2023-04-07T01:59:03.014Z,97005.75
2023-04-07T02:01:29.676Z,97008.22
2023-04-07T02:09:36.829Z,96999.13
2023-04-07T02:12:03.227Z,96988.38
2023-04-07T02:14:29.697Z,96985.25
2023-04-07T02:16:56.317Z,96982.19
2023-04-07T02:19:22.988Z,96978.28
2023-04-07T02:21:49.433Z,96975.91
2023-04-07T02:24:15.911Z,96975.03
2023-04-07T02:26:42.311Z,96971.06
2023-04-07T02:29:08.732Z,96980.09
2023-04-07T02:31:35.181Z,96973.25
2023-04-07T02:34:01.604Z,96972.66
2023-04-07T02:36:28.066Z,96973.69
2023-04-07T02:38:54.496Z,96979.50
2023-04-07T02:41:20.947Z,96973.28
2023-04-07T02:43:47.414Z,96962.28
2023-04-07T02:46:15.480Z,96957.50
2023-04-07T02:48:42.905Z,96948.59
2023-04-07T02:51:09.295Z,96928.72
2023-04-07T02:53:35.641Z,96929.16
2023-04-07T02:56:02.175Z,96910.16
2023-04-07T02:58:28.538Z,96906.44
2023-04-07T03:00:54.955Z,96900.84
2023-04-07T03:03:21.627Z,96894.00
2023-04-07T03:08:38.828Z,96876.81
2023-04-07T03:11:05.309Z,96879.94
2023-04-07T03:13:31.823Z,96882.22
2023-04-07T03:15:58.274Z,96884.31
2023-04-07T03:18:24.730Z,96890.13
2023-04-07T03:20:51.158Z,96891.97
2023-04-07T03:23:17.566Z,96897.72
2023-04-07T03:25:43.960Z,96900.84
2023-04-07T03:28:10.403Z,96899.22
2023-04-07T03:30:36.844Z,96892.78
2023-04-07T03:33:03.392Z,96898.31
2023-04-07T03:35:29.899Z,96879.66
2023-04-07T03:40:36.573Z,96860.03
2023-04-07T03:43:03.035Z,96858.34
2023-04-07T03:45:29.485Z,96850.50
2023-04-07T03:47:56.006Z,96826.28
2023-04-07T03:50:22.547Z,96818.06
2023-04-07T03:52:49.045Z,96820.75
2023-04-07T03:55:15.431Z,96822.22
2023-04-07T03:57:41.821Z,96829.84
2023-04-07T04:00:08.232Z,96840.19
2023-04-07T04:02:34.815Z,96849.59
2023-04-07T04:05:01.350Z,96849.28
2023-04-07T04:07:27.853Z,96847.47
2023-04-07T04:09:54.331Z,96839.16
2023-04-07T04:12:20.773Z,96849.47
2023-04-07T04:14:47.150Z,96847.72
2023-04-07T04:17:13.553Z,96847.09
2023-04-07T04:19:40.033Z,96852.84
2023-04-07T04:22:06.441Z,96847.47
2023-04-07T04:24:32.888Z,96844.56
2023-04-07T04:26:59.304Z,96831.94
2023-04-07T04:29:25.723Z,96827.16
2023-04-07T04:31:52.133Z,96811.47
2023-04-07T04:34:18.609Z,96810.25
2023-04-07T04:36:45.070Z,96819.34
2023-04-07T04:39:11.599Z,96814.81
2023-04-07T04:41:38.386Z,96813.13
2023-04-07T04:44:04.856Z,96806.22
2023-04-07T04:46:31.389Z,96808.56
2023-04-07T04:48:57.818Z,96808.78
2023-04-07T04:51:24.308Z,96813.13
2023-04-07T04:53:50.982Z,96831.94
2023-04-07T04:56:17.570Z,96847.88
2023-04-07T04:58:43.905Z,96876.41
2023-04-07T05:06:41.645Z,96917.78
2023-04-07T05:09:08.014Z,96927.38
2023-04-07T05:11:38.292Z,96938.19
2023-04-07T05:14:25.308Z,96954.78
2023-04-07T05:16:51.724Z,96954.88
2023-04-07T05:19:18.228Z,96962.22
2023-04-07T05:21:44.660Z,96963.06
2023-04-07T05:24:16.923Z,96969.44
2023-04-07T05:26:44.437Z,96981.53
2023-04-07T05:29:10.816Z,96981.34
2023-04-07T05:31:37.273Z,96995.38
2023-04-07T05:34:03.809Z,97002.44
2023-04-07T05:36:30.237Z,96993.59
2023-04-07T05:39:12.010Z,97003.00
2023-04-07T05:41:38.415Z,97001.47
2023-04-07T05:44:04.757Z,96997.06
2023-04-07T05:46:31.075Z,96994.41
2023-04-07T05:48:59.123Z,96999.59
2023-04-07T05:51:25.605Z,97004.53
2023-04-07T05:53:52.107Z,97011.78
2023-04-07T05:56:18.670Z,97006.19
2023-04-07T05:58:44.986Z,96996.69
2023-04-07T06:01:11.362Z,96985.94
2023-04-07T06:03:38.039Z,96987.38
2023-04-07T06:06:04.507Z,96976.66
2023-04-07T06:08:30.847Z,96976.84
2023-04-07T06:10:57.194Z,96989.25
2023-04-07T06:13:23.521Z,96992.34
2023-04-07T06:15:49.874Z,96999.16
2023-04-07T06:18:16.210Z,97021.88
2023-04-07T06:20:42.536Z,97029.47
2023-04-07T06:23:08.865Z,97034.03
2023-04-07T06:25:35.193Z,97042.72
2023-04-07T06:28:01.569Z,97051.38
2023-04-07T06:30:27.941Z,97039.00
2023-04-07T06:32:54.335Z,97023.94
2023-04-07T06:35:20.674Z,97015.47
2023-04-07T06:37:47.052Z,97010.69
2023-04-07T06:40:13.376Z,97014.63
2023-04-07T06:42:39.711Z,97016.69
2023-04-07T06:45:06.042Z,97007.41
2023-04-07T06:47:32.481Z,97009.69
2023-04-07T06:49:58.842Z,97015.47
2023-04-07T06:52:25.174Z,97004.56
2023-04-07T06:54:51.511Z,97002.50
2023-04-07T06:57:17.943Z,97002.50
2023-04-07T06:59:44.341Z,96997.50
2023-04-07T07:02:10.807Z,96997.94
2023-04-07T07:04:37.525Z,97003.94
2023-04-07T07:21:17.538Z,96990.28
2023-04-07T07:23:43.992Z,96993.59
2023-04-07T07:26:10.461Z,96988.22
2023-04-07T07:28:36.896Z,96990.09
2023-04-07T07:31:03.327Z,97000.00
2023-04-07T07:33:29.783Z,97011.16
2023-04-07T07:35:56.199Z,97023.09
2023-04-07T07:38:22.640Z,97015.47
2023-04-07T07:40:49.069Z,97030.53
2023-04-07T07:43:15.530Z,97044.34
2023-04-07T07:48:22.297Z,97037.94
2023-04-07T07:50:51.569Z,97054.28
2023-04-07T07:53:18.050Z,97073.06
2023-04-07T07:55:44.463Z,97087.91
2023-04-07T07:58:10.863Z,97086.22
2023-04-07T08:00:37.218Z,97087.38
2023-04-07T08:03:03.754Z,97089.06
2023-04-07T08:05:30.194Z,97086.63
2023-04-07T08:07:56.685Z,97089.91
2023-04-07T08:10:23.239Z,97085.56
2023-04-07T08:12:49.693Z,97086.63
2023-04-07T08:15:16.166Z,97081.28
2023-04-07T08:17:42.710Z,97081.28
2023-04-07T08:20:09.178Z,97078.03
2023-04-07T08:22:35.571Z,97068.13
2023-04-07T08:25:02.008Z,97075.56
2023-04-07T08:27:28.414Z,97081.78
2023-04-07T08:29:54.938Z,97080.13
2023-04-07T08:32:21.392Z,97090.03
2023-04-07T08:34:47.846Z,97092.50
2023-04-07T08:37:14.262Z,97089.44
2023-04-07T08:39:40.735Z,97087.13
2023-04-07T08:42:07.212Z,97090.03
2023-04-07T08:44:33.682Z,97090.03
2023-04-07T08:47:00.224Z,97093.56
2023-04-07T08:49:26.688Z,97102.88
2023-04-07T08:51:53.138Z,97096.47
2023-04-07T08:54:19.595Z,97097.09
2023-04-07T08:56:46.112Z,97092.78
2023-04-07T08:59:12.583Z,97097.13
2023-04-07T09:01:39.225Z,97099.16
2023-04-07T09:04:05.812Z,97102.50
2023-04-07T09:06:32.256Z,97103.50
2023-04-07T09:08:58.740Z,97104.13
2023-04-07T09:11:25.222Z,97108.69
2023-04-07T09:13:51.780Z,97103.72
2023-04-07T09:16:18.268Z,97099.59
2023-04-07T09:18:44.724Z,97099.63
2023-04-07T09:21:11.126Z,97102.91
2023-04-07T09:23:37.580Z,97104.34
2023-04-07T09:28:44.517Z,97112.84
2023-04-07T09:31:11.023Z,97107.88
2023-04-07T09:33:37.535Z,97113.25
2023-04-07T09:36:04.073Z,97109.13
2023-04-07T09:38:30.575Z,97111.41
2023-04-07T09:40:57.483Z,97109.75
2023-04-07T09:46:04.344Z,97111.41
2023-04-07T09:48:30.807Z,97105.59
2023-04-07T09:50:57.282Z,97110.56
2023-04-07T09:53:23.701Z,97113.25
2023-04-07T09:55:50.151Z,97109.13
2023-04-07T09:58:16.621Z,97114.47
2023-04-07T10:00:43.126Z,97111.78
2023-04-07T10:03:09.682Z,97110.75
2023-04-07T10:05:36.158Z,97107.47
2023-04-07T10:08:02.635Z,97104.16
2023-04-07T10:13:09.512Z,97109.56
2023-04-07T10:15:36.020Z,97111.63
2023-04-07T10:18:02.573Z,97113.06
2023-04-07T10:20:29.175Z,97118.19
2023-04-07T10:22:55.604Z,97121.72
2023-04-07T10:25:22.040Z,97123.34
2023-04-07T10:27:48.456Z,97121.84
2023-04-07T10:30:14.857Z,97125.78
2023-04-07T10:32:43.776Z,97119.00
2023-04-07T10:35:10.281Z,97127.47
2023-04-07T10:37:36.763Z,97119.84
2023-04-07T10:40:03.272Z,97117.00
2023-04-07T10:42:29.807Z,97112.63
2023-04-07T10:44:56.245Z,97111.19
2023-04-07T10:47:22.680Z,97113.69
2023-04-07T10:49:49.197Z,97120.50
2023-04-07T10:52:15.682Z,97112.41
2023-04-07T10:54:42.454Z,97118.00
2023-04-07T10:57:08.936Z,97112.44
2023-04-07T10:59:35.426Z,97119.69
2023-04-07T11:02:01.952Z,97118.66
2023-04-07T11:04:28.613Z,97116.16
2023-04-07T11:06:55.066Z,97115.75
2023-04-07T11:09:21.478Z,97112.84
2023-04-07T11:11:47.907Z,97107.06
2023-04-07T11:14:16.649Z,97108.72
2023-04-07T11:16:43.091Z,97109.13
2023-04-07T11:19:11.495Z,97107.25
2023-04-07T11:21:37.963Z,97113.06
2023-04-07T11:24:04.476Z,97113.06
2023-04-07T11:26:30.928Z,97116.56
2023-04-07T11:28:57.351Z,97116.34
2023-04-07T11:31:23.819Z,97112.00
2023-04-07T11:33:50.505Z,97113.44
2023-04-07T11:36:17.134Z,97117.59
2023-04-07T11:38:44.860Z,97113.63
2023-04-07T11:41:12.542Z,97107.78
2023-04-07T11:43:38.938Z,97112.72
2023-04-07T11:46:05.360Z,97107.34
2023-04-07T11:48:31.803Z,97115.50
2023-04-07T11:50:58.230Z,97108.03
2023-04-07T11:53:24.657Z,97105.28
2023-04-07T11:55:57.418Z,97102.75
2023-04-07T11:58:23.983Z,97105.38
2023-04-07T12:00:50.506Z,97093.00
2023-04-07T12:03:17.177Z,97100.88
2023-04-07T12:05:43.718Z,97101.59
2023-04-07T12:08:10.199Z,97101.22
2023-04-07T12:10:36.698Z,97101.63
2023-04-07T12:13:03.138Z,97103.94
2023-04-07T12:15:29.591Z,97105.19
2023-04-07T12:17:56.111Z,97101.06
2023-04-07T12:20:22.632Z,97098.16
2023-04-07T12:22:49.094Z,97107.03
2023-04-07T12:25:15.572Z,97104.78
2023-04-07T12:27:44.768Z,97100.00
2023-04-07T12:30:14.078Z,97100.44
2023-04-07T12:32:40.584Z,97099.19
2023-04-07T12:35:09.810Z,97099.59
2023-04-07T12:37:36.227Z,97102.47
2023-04-07T12:40:02.649Z,97100.84
2023-04-07T12:42:29.097Z,97096.88
2023-04-07T12:44:55.548Z,97095.88
2023-04-07T12:47:24.372Z,97103.53
2023-04-07T12:49:50.938Z,97100.22
2023-04-07T12:52:17.486Z,97091.97
2023-04-07T12:54:44.093Z,97092.78
2023-04-07T12:57:10.527Z,97092.78
2023-04-07T12:59:36.958Z,97089.81
2023-04-07T13:02:03.678Z,97089.44
2023-04-07T13:07:15.060Z,97081.81
2023-04-07T13:09:41.571Z,97081.81
2023-04-07T13:12:08.064Z,97084.50
2023-04-07T13:14:34.672Z,97078.31
2023-04-07T13:17:01.253Z,97073.53
2023-04-07T13:19:27.861Z,97076.78
2023-04-07T13:21:54.247Z,97073.19
2023-04-07T13:24:20.631Z,97063.88
2023-04-07T13:26:47.055Z,97064.66
2023-04-07T13:29:13.568Z,97060.91
2023-04-07T13:31:43.024Z,97054.53
2023-04-07T13:34:09.568Z,97052.09
2023-04-07T13:36:36.009Z,97049.38
2023-04-07T13:39:02.469Z,97050.19
2023-04-07T13:41:28.973Z,97043.28
2023-04-07T13:43:55.442Z,97029.75
2023-04-07T13:46:28.498Z,97031.75
2023-04-07T13:48:55.764Z,97036.72
2023-04-07T13:51:22.201Z,97028.50
2023-04-07T13:53:51.215Z,97028.50
2023-04-07T13:56:18.589Z,97027.22
2023-04-07T13:58:48.026Z,97018.28
2023-04-07T14:01:14.542Z,97027.97
2023-04-07T14:03:41.248Z,97017.31
2023-04-07T14:06:07.720Z,97018.53
2023-04-07T14:08:34.137Z,97017.66
2023-04-07T14:11:00.546Z,97010.44
2023-04-07T14:13:27.000Z,97005.19
2023-04-07T14:15:53.459Z,97003.91
2023-04-07T14:18:22.771Z,97015.38
2023-04-07T14:20:49.283Z,97016.63
2023-04-07T14:23:20.755Z,97013.84
2023-04-07T14:25:56.699Z,97015.31
2023-04-07T14:28:23.118Z,97027.31
2023-04-07T14:30:49.574Z,97020.19
2023-04-07T14:33:16.092Z,97018.97
2023-04-07T14:35:42.493Z,97023.22
2023-04-07T14:38:08.911Z,97019.78
2023-04-07T14:40:37.360Z,97019.25
2023-04-07T14:43:07.368Z,97016.13
2023-04-07T14:45:34.084Z,97009.16
2023-04-07T14:48:02.831Z,97011.09
2023-04-07T14:50:32.501Z,97008.88
2023-04-07T14:52:59.047Z,97006.09
2023-04-07T14:55:25.579Z,97013.84
2023-04-07T14:57:52.035Z,97017.31
2023-04-07T15:00:18.684Z,97004.75
2023-04-07T15:02:45.327Z,97017.41
2023-04-07T15:05:17.894Z,97014.28
2023-04-07T15:07:44.364Z,97026.34
2023-04-07T15:10:10.867Z,97024.56
2023-04-07T15:12:37.257Z,97029.50
2023-04-07T15:15:03.676Z,97030.47
2023-04-07T15:17:42.398Z,97028.31
2023-04-07T15:20:10.019Z,97032.78
2023-04-07T15:22:36.441Z,97038.78
2023-04-07T15:25:02.892Z,97032.94
2023-04-07T15:27:29.385Z,97040.06
2023-04-07T15:29:58.060Z,97041.31
2023-04-07T15:32:24.560Z,97036.16
2023-04-07T15:34:51.094Z,97039.00
2023-04-07T15:37:17.488Z,97040.00
2023-04-07T15:39:46.255Z,97037.16
2023-04-07T15:42:12.786Z,97034.38
2023-04-07T15:44:39.338Z,97030.56
2023-04-07T15:47:05.878Z,97032.13
2023-04-07T15:49:32.384Z,97033.78
2023-04-07T15:51:58.815Z,97034.91
2023-04-07T15:54:25.301Z,97032.13
2023-04-07T15:56:51.708Z,97033.78
2023-04-07T15:59:18.224Z,97031.91
2023-04-07T16:01:44.709Z,97028.13
2023-04-07T16:04:11.284Z,97031.91
2023-04-07T16:06:37.790Z,97028.38
2023-04-07T16:09:04.230Z,97023.13
2023-04-07T16:11:30.602Z,97022.59
2023-04-07T16:19:40.497Z,97017.47
2023-04-07T16:22:07.096Z,97017.41
2023-04-07T16:24:33.583Z,97018.69
2023-04-07T16:27:01.153Z,97018.31
2023-04-07T16:29:29.322Z,97017.56
2023-04-07T16:31:55.790Z,97015.22
2023-04-07T16:34:22.268Z,97020.19
2023-04-07T16:36:48.770Z,97020.16
2023-04-07T16:39:15.392Z,97029.38
2023-04-07T16:41:41.883Z,97025.66
2023-04-07T16:44:08.392Z,97026.75
2023-04-07T16:46:34.870Z,97028.63
2023-04-07T16:49:04.418Z,97038.56
2023-04-07T16:51:33.845Z,97029.09
2023-04-07T16:54:03.854Z,97035.19
2023-04-07T16:56:30.369Z,97047.47
2023-04-07T16:58:56.803Z,97048.53
2023-04-07T17:01:23.315Z,97047.63
2023-04-07T17:03:50.086Z,97046.91
2023-04-07T17:06:16.756Z,97067.25
2023-04-07T17:08:46.222Z,97064.19
2023-04-07T17:11:12.913Z,97059.28
2023-04-07T17:13:40.625Z,97068.22
2023-04-07T17:18:51.185Z,97070.59
2023-04-07T17:21:22.644Z,97081.28
2023-04-07T17:23:49.367Z,97083.47
2023-04-07T17:26:15.931Z,97085.50
2023-04-07T17:28:42.407Z,97089.72
2023-04-07T17:31:08.917Z,97094.88
2023-04-07T17:33:35.338Z,97094.50
2023-04-07T17:36:01.868Z,97101.81
2023-04-07T17:38:28.391Z,97105.28
2023-04-07T17:40:55.020Z,97107.94
2023-04-07T17:43:21.640Z,97119.28
2023-04-07T17:45:48.260Z,97114.94
2023-04-07T17:48:14.721Z,97114.13
2023-04-07T17:50:41.293Z,97128.75
2023-04-07T17:53:07.728Z,97129.25
2023-04-07T17:55:34.158Z,97131.19
2023-04-07T17:58:03.067Z,97126.97
2023-04-07T18:00:29.582Z,97138.75
2023-04-07T18:03:05.313Z,97142.00
2023-04-07T18:05:31.810Z,97147.91
2023-04-07T18:07:58.408Z,97143.81
2023-04-07T18:10:24.908Z,97150.22
2023-04-07T18:12:51.352Z,97162.44
2023-04-07T18:15:17.809Z,97157.13
2023-04-07T18:17:44.398Z,97157.91
2023-04-07T18:20:11.073Z,97157.59
2023-04-07T18:22:37.536Z,97162.75
2023-04-07T18:25:03.938Z,97166.28
2023-04-07T18:27:30.448Z,97167.94
2023-04-07T18:29:56.943Z,97173.22
2023-04-07T18:32:23.365Z,97170.50
2023-04-07T18:34:49.785Z,97173.13
2023-04-07T18:37:16.230Z,97173.31
2023-04-07T18:39:42.686Z,97182.47
2023-04-07T18:42:09.228Z,97186.03
2023-04-07T18:44:35.621Z,97184.78
2023-04-07T18:47:06.529Z,97185.00
2023-04-07T18:49:33.021Z,97181.50
2023-04-07T18:51:59.450Z,97182.34
2023-04-07T18:54:25.876Z,97187.16
2023-04-07T18:56:52.291Z,97182.38
2023-04-07T18:59:18.744Z,97184.47
2023-04-07T19:01:45.214Z,97196.56
2023-04-07T19:04:11.708Z,97196.78
2023-04-07T19:06:38.223Z,97201.19
2023-04-07T19:09:04.596Z,97198.53
2023-04-07T19:11:30.999Z,97200.84
2023-04-07T19:13:57.398Z,97200.66
2023-04-07T19:16:23.824Z,97205.88
2023-04-07T19:18:50.179Z,97202.16
2023-04-07T19:21:16.553Z,97206.09
2023-04-07T19:23:43.020Z,97206.69
2023-04-07T19:26:09.439Z,97215.03
2023-04-07T19:28:35.817Z,97210.66
2023-04-07T19:31:02.224Z,97222.06
2023-04-07T19:33:28.659Z,97220.41
2023-04-07T19:35:55.108Z,97214.22
2023-04-07T19:38:21.520Z,97219.97
2023-04-07T19:40:47.983Z,97223.31
2023-04-07T19:43:14.417Z,97221.66
2023-04-07T19:45:40.928Z,97228.91
2023-04-07T19:48:07.469Z,97225.81
2023-04-07T19:50:35.060Z,97224.34
2023-04-07T19:53:01.474Z,97232.41
2023-04-07T19:55:27.917Z,97231.81
2023-04-07T19:57:54.336Z,97234.91
2023-04-07T20:00:20.773Z,97231.38
2023-04-07T20:02:47.356Z,97232.44
2023-04-07T20:05:13.855Z,97244.00
2023-04-07T20:07:40.274Z,97244.44
2023-04-07T20:10:06.729Z,97247.13
2023-04-07T20:12:33.144Z,97242.16
2023-04-07T20:14:59.533Z,97253.13
2023-04-07T20:17:25.988Z,97253.13
2023-04-07T20:20:00.042Z,97252.91
2023-04-07T20:22:26.422Z,97255.81
2023-04-07T20:24:52.833Z,97264.72
2023-04-07T20:27:31.214Z,97261.19
2023-04-07T20:29:57.640Z,97262.22
2023-04-07T20:32:24.157Z,97266.78
2023-04-07T20:34:50.616Z,97265.34
2023-04-07T20:37:17.065Z,97268.25
2023-04-07T20:39:43.531Z,97273.00
2023-04-07T20:42:12.741Z,97266.78
2023-04-07T20:44:39.131Z,97264.50
2023-04-07T20:47:05.603Z,97265.56
2023-04-07T20:49:40.892Z,97265.94
2023-04-07T20:52:08.019Z,97264.31
2023-04-07T20:54:36.028Z,97269.50
2023-04-07T20:57:02.401Z,97265.34
2023-04-07T20:59:28.739Z,97268.22
2023-04-07T21:01:55.163Z,97269.47
2023-04-07T21:04:21.763Z,97265.75
2023-04-07T21:06:48.277Z,97258.72
2023-04-07T21:09:14.620Z,97271.16
2023-04-07T21:14:31.271Z,97269.47
2023-04-07T21:16:57.705Z,97263.84
2023-04-07T21:19:24.212Z,97261.16
2023-04-07T21:21:52.846Z,97258.69
2023-04-07T21:24:19.343Z,97261.13
2023-04-07T21:26:45.793Z,97259.47
2023-04-07T21:29:12.191Z,97260.91
2023-04-07T21:31:38.565Z,97263.78
2023-04-07T21:34:05.011Z,97262.50
2023-04-07T21:36:31.467Z,97258.59
2023-04-07T21:38:57.920Z,97254.47
2023-04-07T21:41:24.352Z,97249.31
2023-04-07T21:43:50.816Z,97262.13
2023-04-07T21:46:17.300Z,97249.69
2023-04-07T21:48:43.812Z,97249.25
2023-04-07T21:51:10.307Z,97250.91
2023-04-07T21:53:36.791Z,97260.00
2023-04-07T21:56:03.233Z,97264.91
2023-04-07T21:58:29.728Z,97268.88
2023-04-07T22:03:36.698Z,97267.03
2023-04-07T22:06:03.296Z,97262.88
2023-04-07T22:08:29.781Z,97265.81
2023-04-07T22:10:56.236Z,97266.66
2023-04-07T22:13:22.647Z,97263.56
2023-04-07T22:15:49.119Z,97266.03
2023-04-07T22:18:15.567Z,97262.53
2023-04-07T22:20:42.049Z,97262.72
2023-04-07T22:23:08.386Z,97252.81
2023-04-07T22:25:34.854Z,97254.47
2023-04-07T22:28:01.337Z,97260.88
2023-04-07T22:30:27.811Z,97252.31
2023-04-07T22:32:54.289Z,97249.41
2023-04-07T22:35:20.838Z,97254.19
2023-04-07T22:37:47.364Z,97254.38
2023-04-07T22:40:13.812Z,97255.81
2023-04-07T22:42:40.266Z,97257.69
2023-04-07T22:45:06.661Z,97256.00
2023-04-07T22:47:33.121Z,97250.44
2023-04-07T22:49:59.596Z,97254.19
2023-04-07T22:52:26.031Z,97251.50
2023-04-07T22:54:52.516Z,97257.06
2023-04-07T22:57:28.981Z,97250.63
2023-04-07T23:00:05.555Z,97256.44
2023-04-07T23:02:32.155Z,97252.09
2023-04-07T23:04:58.676Z,97252.50
2023-04-07T23:07:25.162Z,97252.91
2023-04-07T23:09:52.749Z,97261.19
2023-04-07T23:12:19.130Z,97257.44
2023-04-07T23:14:45.534Z,97255.16
2023-04-07T23:17:11.988Z,97253.25
2023-04-07T23:19:40.965Z,97249.28
2023-04-07T23:22:07.390Z,97255.28
2023-04-07T23:24:33.830Z,97252.59
2023-04-07T23:29:40.681Z,97262.31
2023-04-07T23:32:07.279Z,97255.72
2023-04-07T23:34:39.102Z,97257.34
2023-04-07T23:37:05.501Z,97256.94
2023-04-07T23:39:31.850Z,97248.06
2023-04-07T23:41:58.190Z,97254.91
2023-04-07T23:44:24.603Z,97252.63
2023-04-07T23:46:51.040Z,97255.94
2023-04-07T23:49:17.504Z,97265.19
2023-04-07T23:51:43.944Z,97256.09
2023-04-07T23:54:10.388Z,97261.09
2023-04-07T23:56:39.217Z,97260.84
2023-04-07T23:59:05.577Z,97259.84
